RJFR/KKJ METAR and TAF weather

Enter ICAO airport designator
Station Type Date Time Source
RJFR METAR 2020/07/03 12:00 UTC NOAA

RJFR 031200Z 12011KT 8000 -SHRA FEW005 SCT009 BKN015 21/20 Q1007


Station Type Date Time Source
RJFR Decoded METAR 2020/07/03 12:00 UTC NOAA

Kitakyushu Airport, Japan (RJFR) 33-50N 130-57E 6M
Jul 03, 2020 - 08:00 AM EDT / 2020.07.03 1200 UTC
Wind: from the ESE (120 degrees) at 13 MPH (11 KT):0
Visibility: 4 mile(s):0
Sky conditions: mostly cloudy
Weather: light rain showers
Temperature: 69 F (21 C)
Dew Point: 68 F (20 C)
Relative Humidity: 94%
Pressure (altimeter): 29.74 in. Hg (1007 hPa)
ob: RJFR 031200Z 12011KT 8000 -SHRA FEW005 SCT009 BKN015 21/20 Q1007
cycle: 12

Station Type Date Time Source
RJFR TAF 2020/07/03 12:30 UTC NOAA

TAF RJFR 031110Z 0312/0418 11013KT 8000 -SHRA FEW005 SCT010 BKN015
TEMPO 0312/0317 FEW002 SCT005 BKN008
BECMG 0315/0317 31012KT

Example: see airport list